Time;durP1;ratioP1;P1;durP2;ratioP2;P2;SDS_P1;SDS_P2;PMS_P1;PMS_P2;Temp;Humidity;BMP_temperature;BMP_pressure;BME280_temperature;BME280_humidity;BME280_pressure;Samples;Min_cycle;Max_cycle;Signal;HPM_P1;HPM_P2
2021/03/21 00:00:32;;;;;;;153.93;33.13;;;;;;;23.58;50.99;100058.41;5073446;28;20044;-62
2021/03/21 00:02:58;;;;;;;149.82;29.25;;;;;;;23.54;51.96;100059.88;5073038;28;20075;-61
2021/03/21 00:05:23;;;;;;;154.77;30.08;;;;;;;23.52;51.98;100059.28;5073610;28;20055;-61
2021/03/21 00:07:56;;;;;;;155.68;33.08;;;;;;;23.45;52.26;100050.25;5073826;28;20406;-61
2021/03/21 00:10:23;;;;;;;158.30;32.50;;;;;;;23.43;52.33;100044.13;5073859;28;20016;-61
2021/03/21 00:12:48;;;;;;;160.40;33.95;;;;;;;23.45;51.07;100042.00;5073477;28;20253;-61
2021/03/21 00:15:13;;;;;;;151.57;31.27;;;;;;;23.47;51.86;100048.09;5073389;28;20035;-61
2021/03/21 00:17:39;;;;;;;159.40;32.85;;;;;;;23.44;51.31;100051.31;5073313;28;20017;-61
2021/03/21 00:20:06;;;;;;;154.68;33.35;;;;;;;23.45;51.63;100047.50;5072673;28;20142;-62
2021/03/21 00:22:32;;;;;;;153.32;30.77;;;;;;;23.45;52.05;100047.50;5073310;28;20035;-61
2021/03/21 00:24:57;;;;;;;148.73;32.97;;;;;;;23.49;52.28;100043.22;5072899;28;20032;-61
2021/03/21 00:27:22;;;;;;;150.63;31.20;;;;;;;23.41;51.55;100041.63;5055374;28;20035;-61
2021/03/21 00:29:47;;;;;;;149.57;30.13;;;;;;;23.38;52.11;100036.59;5073271;28;20027;-61
2021/03/21 00:32:13;;;;;;;138.77;27.80;;;;;;;23.37;52.11;100043.13;5073246;28;20024;-62
2021/03/21 00:34:38;;;;;;;142.80;29.58;;;;;;;23.37;51.49;100045.88;5073183;28;20029;-62
2021/03/21 00:37:04;;;;;;;147.23;31.17;;;;;;;23.33;51.40;100049.28;5072901;28;20035;-62
2021/03/21 00:39:29;;;;;;;146.00;29.88;;;;;;;23.32;52.09;100042.09;5073414;28;20261;-61
2021/03/21 00:41:54;;;;;;;152.27;33.15;;;;;;;23.30;52.80;100041.50;5072860;28;20052;-61
2021/03/21 00:44:19;;;;;;;149.10;31.65;;;;;;;23.30;53.21;100049.72;5072846;28;20312;-61
2021/03/21 00:46:45;;;;;;;150.98;30.58;;;;;;;23.31;53.78;100052.25;5072896;28;20026;-62
2021/03/21 00:49:10;;;;;;;159.65;32.53;;;;;;;23.35;53.99;100047.19;5072778;28;20483;-62
2021/03/21 00:51:35;;;;;;;164.38;34.47;;;;;;;23.38;53.88;100046.72;5072521;28;20021;-62
2021/03/21 00:54:00;;;;;;;155.48;31.48;;;;;;;23.34;53.78;100045.47;5072427;28;20040;-62
2021/03/21 00:56:34;;;;;;;133.15;29.00;;;;;;;23.31;53.55;100051.41;5070866;28;20063;-61
2021/03/21 00:59:00;;;;;;;144.20;30.25;;;;;;;23.25;54.00;100063.28;5072321;28;20024;-61
2021/03/21 01:01:27;;;;;;;122.47;27.98;;;;;;;23.21;53.51;100067.53;5072460;28;20352;-61
2021/03/21 01:03:52;;;;;;;144.48;29.17;;;;;;;23.24;53.91;100061.59;5072425;28;20032;-61
2021/03/21 01:06:18;;;;;;;133.80;29.00;;;;;;;23.21;54.18;100062.88;5072216;28;20028;-62
2021/03/21 01:08:43;;;;;;;146.40;28.75;;;;;;;23.22;53.16;100064.56;5073016;28;20028;-62
2021/03/21 01:11:16;;;;;;;145.20;31.15;;;;;;;23.20;54.06;100060.38;5072473;28;20017;-62
2021/03/21 01:13:43;;;;;;;157.60;30.25;;;;;;;23.19;54.97;100064.19;5072599;28;20517;-61
2021/03/21 01:16:17;;;;;;;136.90;29.35;;;;;;;23.17;54.06;100060.78;5072409;28;20035;-61
2021/03/21 01:18:43;;;;;;;150.90;30.35;;;;;;;23.22;54.40;100048.13;5054556;28;20436;-61
2021/03/21 01:21:11;;;;;;;168.85;33.53;;;;;;;23.22;53.48;100047.28;5053899;28;20079;-61
2021/03/21 01:23:39;;;;;;;141.27;29.23;;;;;;;23.21;52.75;100062.03;5071824;28;20024;-62
2021/03/21 01:26:05;;;;;;;136.52;30.10;;;;;;;23.11;52.47;100046.91;5072477;28;20073;-62
2021/03/21 01:28:33;;;;;;;136.18;27.48;;;;;;;23.11;52.69;100052.41;5072474;28;20483;-62
2021/03/21 01:31:02;;;;;;;144.82;27.17;;;;;;;23.10;53.01;100038.91;5054155;28;20361;-62
2021/03/21 01:33:30;;;;;;;146.82;27.95;;;;;;;23.08;53.68;100047.38;5072351;28;20031;-61
2021/03/21 01:35:56;;;;;;;142.85;30.35;;;;;;;23.06;52.88;100054.97;5072011;28;20519;-61
2021/03/21 01:38:23;;;;;;;150.50;30.50;;;;;;;23.08;53.40;100054.75;5072262;28;20055;-62
2021/03/21 01:40:56;;;;;;;167.80;33.33;;;;;;;23.07;52.76;100064.88;5072258;28;20402;-62
2021/03/21 01:43:30;;;;;;;153.80;31.58;;;;;;;23.06;52.75;100071.41;5072298;28;20035;-62
2021/03/21 01:45:56;;;;;;;160.45;34.10;;;;;;;23.07;53.57;100062.13;5072179;28;20032;-62
2021/03/21 01:48:30;;;;;;;153.23;29.77;;;;;;;23.06;53.87;100060.44;5072730;28;20012;-62
2021/03/21 01:51:00;;;;;;;148.77;30.67;;;;;;;23.09;52.16;100070.97;5072020;28;20417;-62
2021/03/21 01:53:29;;;;;;;139.55;27.00;;;;;;;23.05;53.01;100064.25;5057822;28;20040;-62
2021/03/21 01:55:56;;;;;;;145.10;28.55;;;;;;;23.06;52.27;100071.41;5076035;28;20028;-61
2021/03/21 01:58:25;;;;;;;127.72;26.73;;;;;;;23.04;52.29;100068.06;5058248;28;20495;-61
2021/03/21 02:00:56;;;;;;;129.85;27.80;;;;;;;23.00;52.51;100066.78;5075833;28;20037;-62
2021/03/21 02:03:21;;;;;;;145.90;31.25;;;;;;;22.99;52.47;100064.28;5058423;28;20394;-62
2021/03/21 02:05:51;;;;;;;139.25;28.65;;;;;;;22.98;52.96;100063.44;5075963;28;20024;-62
2021/03/21 02:08:27;;;;;;;158.13;31.00;;;;;;;22.96;53.08;100065.56;5075720;28;20213;-61
2021/03/21 02:11:05;;;;;;;138.88;27.08;;;;;;;22.96;53.74;100068.31;5075825;28;20487;-62
2021/03/21 02:14:18;;;;;;;139.30;27.58;;;;;;;22.90;53.31;100060.97;5073822;28;20069;-62
2021/03/21 02:17:05;;;;;;;137.65;27.80;;;;;;;23.00;52.47;100066.78;4993942;28;20117;-63
2021/03/21 02:20:03;;;;;;;136.18;29.55;;;;;;;22.96;53.39;100073.78;4993708;28;20030;-62
2021/03/21 02:22:34;;;;;;;132.98;27.65;;;;;;;22.99;52.57;100076.09;4974225;28;20031;-62
2021/03/21 02:25:37;;;;;;;139.10;27.50;;;;;;;22.91;52.76;100073.63;4974243;28;20482;-62
2021/03/21 02:28:18;;;;;;;124.95;25.17;;;;;;;22.92;53.76;100071.72;4974204;28;20038;-62
2021/03/21 02:30:47;;;;;;;144.65;29.25;;;;;;;22.93;52.82;100076.97;4974476;28;20041;-62
2021/03/21 02:33:18;;;;;;;146.82;29.52;;;;;;;22.90;53.15;100077.41;4974194;28;20445;-62
2021/03/21 02:35:45;;;;;;;158.38;31.42;;;;;;;22.81;53.16;100078.69;4978042;28;20038;-61
2021/03/21 02:38:27;;;;;;;142.40;27.45;;;;;;;22.84;54.05;100083.75;4993499;28;20026;-61
2021/03/21 02:41:00;;;;;;;142.23;29.50;;;;;;;22.83;54.12;100073.84;4993557;28;20053;-62
2021/03/21 02:43:38;;;;;;;137.45;29.67;;;;;;;22.91;52.90;100081.84;4993567;28;20158;-62
2021/03/21 02:46:21;;;;;;;147.10;29.83;;;;;;;22.91;53.43;100078.25;4993376;28;20030;-62
2021/03/21 02:49:16;;;;;;;144.10;27.02;;;;;;;22.89;54.80;100086.72;4993420;28;20134;-62
2021/03/21 02:51:47;;;;;;;145.82;30.25;;;;;;;22.89;54.29;100088.59;4990677;28;20065;-62
2021/03/21 02:54:19;;;;;;;132.85;27.33;;;;;;;22.85;55.01;100085.47;5074643;28;20123;-62
2021/03/21 02:56:48;;;;;;;139.18;27.42;;;;;;;22.81;55.41;100085.00;5075050;28;20047;-62
2021/03/21 02:59:24;;;;;;;139.25;28.75;;;;;;;22.86;55.25;100086.31;5074908;28;20051;-62
2021/03/21 03:02:06;;;;;;;145.13;29.92;;;;;;;22.83;55.04;100097.69;5074790;28;20459;-62
2021/03/21 03:04:37;;;;;;;142.50;29.58;;;;;;;22.84;55.22;100100.19;5073682;28;20111;-61
2021/03/21 03:07:15;;;;;;;154.63;30.42;;;;;;;22.85;55.09;100098.34;5074423;28;20413;-61
2021/03/21 03:09:48;;;;;;;141.05;29.42;;;;;;;22.90;54.24;100110.31;5074821;28;20024;-61
2021/03/21 03:12:19;;;;;;;142.93;27.20;;;;;;;22.88;55.04;100106.94;5074933;28;20028;-61
2021/03/21 03:14:47;;;;;;;124.60;25.27;;;;;;;22.79;54.48;100102.72;5074783;28;20024;-62
2021/03/21 03:17:39;;;;;;;132.85;25.98;;;;;;;22.83;54.16;100100.41;5074523;28;20020;-62
2021/03/21 03:20:23;;;;;;;130.45;26.58;;;;;;;22.83;54.35;100104.00;5074010;28;20179;-62
2021/03/21 03:23:02;;;;;;;129.25;25.73;;;;;;;22.84;53.93;100115.81;5074460;28;20467;-62
2021/03/21 03:25:34;;;;;;;139.45;28.98;;;;;;;22.80;54.62;100115.38;5075176;28;20021;-62
2021/03/21 03:28:09;;;;;;;150.05;29.95;;;;;;;22.74;54.37;100113.50;5074268;28;20070;-61
2021/03/21 03:30:45;;;;;;;155.10;30.88;;;;;;;22.71;55.22;100113.97;5074427;28;20496;-61
2021/03/21 03:33:10;;;;;;;154.25;31.48;;;;;;;22.72;54.56;100118.38;5074213;28;20027;-61
2021/03/21 03:35:37;;;;;;;128.50;27.02;;;;;;;22.77;53.59;100116.66;5074617;28;20028;-61
2021/03/21 03:38:05;;;;;;;135.35;28.25;;;;;;;22.79;54.08;100114.53;5056088;28;20021;-62
2021/03/21 03:40:34;;;;;;;131.18;26.75;;;;;;;22.77;53.35;100118.56;5074187;28;20062;-62
2021/03/21 03:43:13;;;;;;;143.30;27.95;;;;;;;22.75;53.28;100120.69;5073879;28;20028;-62
2021/03/21 03:45:53;;;;;;;140.27;28.77;;;;;;;22.70;53.50;100124.06;5074177;28;20024;-62
2021/03/21 03:48:27;;;;;;;141.60;29.23;;;;;;;22.72;53.61;100134.81;5073793;28;20467;-62
2021/03/21 03:50:55;;;;;;;143.85;26.50;;;;;;;22.67;53.97;100142.81;5073739;28;20028;-62
2021/03/21 03:53:49;;;;;;;146.75;29.40;;;;;;;22.72;53.25;100140.28;5073351;28;20028;-61
2021/03/21 03:56:25;;;;;;;151.02;28.17;;;;;;;22.64;54.24;100154.22;5073966;28;20032;-61
2021/03/21 03:59:05;;;;;;;141.80;28.52;;;;;;;22.68;54.31;100152.75;5073824;28;20020;-61
2021/03/21 04:01:47;;;;;;;139.93;27.80;;;;;;;22.72;52.99;100156.75;5073668;28;20028;-61
2021/03/21 04:04:21;;;;;;;126.03;26.60;;;;;;;22.68;53.73;100147.28;5073808;28;20025;-62
2021/03/21 04:07:03;;;;;;;122.57;25.70;;;;;;;22.69;53.25;100155.28;5073638;28;20024;-61
2021/03/21 04:09:34;;;;;;;134.60;25.58;;;;;;;22.65;53.47;100164.13;5073713;28;20118;-62
2021/03/21 04:12:05;;;;;;;135.32;27.88;;;;;;;22.67;53.59;100159.25;5073284;28;20028;-62
2021/03/21 04:14:42;;;;;;;144.10;30.83;;;;;;;22.60;53.27;100164.78;5055271;28;20051;-62
2021/03/21 04:17:26;;;;;;;148.90;30.75;;;;;;;22.57;54.91;100169.84;5073367;28;20644;-62
2021/03/21 04:20:00;;;;;;;148.65;28.20;;;;;;;22.62;53.30;100172.78;5073065;28;20029;-61
2021/03/21 04:22:31;;;;;;;137.77;31.75;;;;;;;22.59;54.26;100167.72;5073275;28;20024;-61
2021/03/21 04:25:03;;;;;;;142.13;28.30;;;;;;;22.64;53.49;100167.91;5073141;28;20463;-61
2021/03/21 04:27:35;;;;;;;135.40;27.85;;;;;;;22.67;52.77;100159.25;5073266;28;20028;-61
2021/03/21 04:30:05;;;;;;;130.35;25.90;;;;;;;22.70;52.43;100169.81;5073061;28;20521;-61
2021/03/21 04:32:46;;;;;;;123.15;25.00;;;;;;;22.65;52.73;100177.81;5073160;28;20510;-61
2021/03/21 04:35:25;;;;;;;129.43;26.48;;;;;;;22.63;53.55;100178.03;5073291;28;20580;-61
2021/03/21 04:37:58;;;;;;;129.82;26.00;;;;;;;22.60;54.85;100181.22;5054987;28;20051;-61
2021/03/21 04:40:24;;;;;;;134.30;26.15;;;;;;;22.61;55.92;100182.06;5073033;28;20032;-62
2021/03/21 04:42:57;;;;;;;135.27;28.65;;;;;;;22.59;56.05;100178.69;5072845;28;20050;-61
2021/03/21 04:45:29;;;;;;;136.10;27.25;;;;;;;22.54;55.25;100181.25;5072984;28;20054;-61
2021/03/21 04:48:01;;;;;;;147.30;30.38;;;;;;;22.59;55.99;100189.66;5072534;28;20414;-61
2021/03/21 04:50:29;;;;;;;129.45;27.88;;;;;;;22.61;55.16;100187.53;5072476;28;20025;-61
2021/03/21 04:53:00;;;;;;;133.00;26.70;;;;;;;22.63;54.35;100190.88;5073033;28;20349;-62
2021/03/21 04:55:38;;;;;;;126.50;28.35;;;;;;;22.67;54.68;100201.19;5072690;28;20048;-61
2021/03/21 04:58:12;;;;;;;127.55;24.58;;;;;;;22.62;54.60;100200.16;5072593;28;20467;-61
2021/03/21 05:00:40;;;;;;;137.43;27.40;;;;;;;22.62;55.07;100211.13;5072799;28;20075;-62
2021/03/21 05:03:24;;;;;;;130.60;25.90;;;;;;;23.68;52.26;100215.16;5072290;28;20107;-61
2021/03/21 05:05:56;;;;;;;147.82;29.98;;;;;;;24.13;50.91;100225.97;5055014;28;20464;-61
2021/03/21 05:08:27;;;;;;;133.75;25.60;;;;;;;24.28;50.65;100222.88;5072502;28;20022;-61
2021/03/21 05:10:57;;;;;;;134.38;27.70;;;;;;;24.42;50.90;100218.16;5072599;28;20016;-61
2021/03/21 05:13:35;;;;;;;152.75;30.13;;;;;;;24.62;51.17;100221.53;5072734;28;20414;-62
2021/03/21 05:16:12;;;;;;;155.55;33.60;;;;;;;24.75;50.71;100218.66;5072427;28;20111;-62
2021/03/21 05:19:09;;;;;;;142.50;26.73;;;;;;;24.75;50.13;100229.63;5072596;28;20490;-61
2021/03/21 05:21:42;;;;;;;137.57;26.17;;;;;;;24.81;49.41;100233.38;4993033;28;20134;-62
2021/03/21 05:24:19;;;;;;;146.10;29.30;;;;;;;24.80;51.29;100227.03;5010236;28;20045;-62
2021/03/21 05:26:49;;;;;;;127.45;27.30;;;;;;;24.79;49.85;100236.34;5009774;28;20045;-61
2021/03/21 05:29:35;;;;;;;130.10;27.75;;;;;;;24.81;49.44;100234.22;5010306;28;20037;-61
2021/03/21 05:32:01;;;;;;;140.60;30.23;;;;;;;24.83;49.54;100232.06;5010127;28;20030;-61
2021/03/21 05:34:26;;;;;;;155.65;32.28;;;;;;;24.86;49.66;100242.63;5010372;28;20041;-62
2021/03/21 05:37:05;;;;;;;147.50;31.30;;;;;;;24.90;49.43;100249.34;5010259;28;20033;-62
2021/03/21 05:39:42;;;;;;;141.52;28.98;;;;;;;24.90;49.53;100243.84;5010371;28;20502;-62
2021/03/21 05:42:35;;;;;;;141.88;27.73;;;;;;;25.00;49.47;100248.00;5009988;28;20034;-62
2021/03/21 05:45:34;;;;;;;142.95;29.98;;;;;;;25.09;49.58;100249.38;5009962;28;20150;-62
2021/03/21 05:48:38;;;;;;;135.25;28.80;;;;;;;25.07;50.33;100248.75;5010028;28;20065;-61
2021/03/21 05:51:27;;;;;;;127.60;25.95;;;;;;;25.22;49.13;100268.47;5009475;28;20122;-61
2021/03/21 05:54:34;;;;;;;141.95;29.67;;;;;;;25.14;48.69;100249.50;5009595;28;20052;-62
2021/03/21 05:57:03;;;;;;;143.48;31.95;;;;;;;25.14;48.54;100264.09;5015300;28;20049;-61
2021/03/21 05:59:58;;;;;;;154.45;31.35;;;;;;;25.15;49.86;100256.69;5072258;28;20029;-62
2021/03/21 06:02:46;;;;;;;159.40;32.28;;;;;;;25.16;49.79;100250.13;5072019;28;20032;-61
2021/03/21 06:05:27;;;;;;;148.68;32.40;;;;;;;25.17;49.66;100271.03;5071746;28;20559;-61
2021/03/21 06:08:17;;;;;;;157.55;34.35;;;;;;;25.17;48.89;100271.03;5072100;28;20036;-61
2021/03/21 06:10:56;;;;;;;148.27;32.28;;;;;;;25.21;49.21;100266.78;5072185;28;20082;-62
2021/03/21 06:13:35;;;;;;;169.43;36.47;;;;;;;25.25;49.13;100279.00;5071930;28;20399;-61
2021/03/21 06:16:27;;;;;;;150.57;32.22;;;;;;;25.22;48.82;100279.47;5071615;28;20024;-61
2021/03/21 06:19:31;;;;;;;153.48;31.45;;;;;;;25.28;49.15;100269.44;5071794;28;20035;-61
2021/03/21 06:22:11;;;;;;;161.77;32.45;;;;;;;25.28;48.87;100289.53;4970669;28;20057;-61
2021/03/21 06:24:38;;;;;;;155.20;31.13;;;;;;;25.35;48.91;100290.28;4970842;28;20133;-61
2021/03/21 06:27:13;;;;;;;138.15;29.50;;;;;;;25.29;48.78;100285.72;4970689;28;20038;-62
2021/03/21 06:29:52;;;;;;;156.32;34.20;;;;;;;25.27;48.56;100282.38;4970882;28;20034;-61
2021/03/21 06:32:39;;;;;;;157.32;34.20;;;;;;;25.25;50.77;100289.16;4970634;28;20047;-61
2021/03/21 06:35:07;;;;;;;151.48;32.55;;;;;;;25.27;49.07;100296.13;4970568;28;20065;-61
2021/03/21 06:37:44;;;;;;;154.65;31.77;;;;;;;25.15;48.97;100298.78;4971204;28;20111;-60
2021/03/21 06:40:37;;;;;;;150.10;32.90;;;;;;;25.26;48.60;100290.84;4974094;28;20149;-61
2021/03/21 06:43:17;;;;;;;133.60;28.60;;;;;;;25.25;50.15;100301.00;4973909;28;20027;-61
2021/03/21 06:46:04;;;;;;;145.48;31.63;;;;;;;25.26;48.99;100304.59;4974259;28;20130;-60
2021/03/21 06:49:03;;;;;;;173.73;37.20;;;;;;;25.34;50.04;100299.63;4974034;28;20030;-61
2021/03/21 06:51:50;;;;;;;152.32;32.75;;;;;;;25.40;48.74;100306.97;4993081;28;20042;-61
2021/03/21 06:54:43;;;;;;;143.63;29.45;;;;;;;25.48;47.95;100323.16;4992800;28;20133;-61
2021/03/21 06:57:49;;;;;;;132.15;30.65;;;;;;;25.39;48.46;100324.56;4993224;28;20068;-61
2021/03/21 07:00:33;;;;;;;152.82;34.30;;;;;;;25.36;49.97;100319.50;4954375;29;20071;-61
2021/03/21 07:03:01;;;;;;;159.95;33.15;;;;;;;25.37;49.19;100334.94;4954069;29;20031;-61
2021/03/21 07:06:04;;;;;;;160.85;33.17;;;;;;;25.39;49.95;100324.56;4954215;28;20041;-61
2021/03/21 07:08:35;;;;;;;140.23;28.63;;;;;;;25.45;48.88;100337.38;4954499;29;20578;-61
2021/03/21 07:11:27;;;;;;;173.43;38.55;;;;;;;25.49;51.51;100346.84;4954222;29;20043;-61
2021/03/21 07:14:37;;;;;;;167.10;33.53;;;;;;;25.43;51.45;100339.53;4954297;29;20564;-61
2021/03/21 07:17:40;;;;;;;161.25;32.90;;;;;;;25.45;50.42;100351.13;4953965;29;20090;-61
2021/03/21 07:20:40;;;;;;;156.75;31.63;;;;;;;25.49;51.82;100346.84;4954134;29;20023;-61
2021/03/21 07:23:36;;;;;;;173.10;36.08;;;;;;;25.55;51.20;100349.75;4953659;29;20538;-61
2021/03/21 07:26:22;;;;;;;155.98;31.95;;;;;;;25.59;50.17;100373.00;4953898;29;20118;-61
2021/03/21 07:29:25;;;;;;;144.75;31.38;;;;;;;25.59;50.55;100362.00;4954068;29;20023;-61
2021/03/21 07:32:06;;;;;;;147.80;30.77;;;;;;;25.47;50.78;100356.41;4954049;29;20436;-61
2021/03/21 07:34:40;;;;;;;161.93;34.90;;;;;;;25.40;50.38;100363.91;4953781;29;20031;-61
2021/03/21 07:37:17;;;;;;;155.35;32.22;;;;;;;25.44;50.20;100354.97;5015250;28;20037;-60
2021/03/21 07:40:08;;;;;;;168.00;34.83;;;;;;;25.40;50.56;100364.75;5054328;28;20108;-60
2021/03/21 07:42:55;;;;;;;169.43;34.55;;;;;;;25.45;51.37;100350.28;5054074;28;20025;-61
2021/03/21 07:45:36;;;;;;;170.13;36.88;;;;;;;25.49;51.60;100362.50;5054081;28;20067;-60
2021/03/21 07:48:24;;;;;;;157.45;33.00;;;;;;;25.59;51.45;100373.84;5052480;28;20112;-60
2021/03/21 07:51:02;;;;;;;162.85;34.75;;;;;;;25.50;52.65;100381.53;5053379;28;20017;-61
2021/03/21 07:53:33;;;;;;;158.02;32.38;;;;;;;25.57;51.84;100377.91;5053829;28;20377;-61
2021/03/21 07:56:18;;;;;;;180.05;35.95;;;;;;;25.67;50.14;100386.44;5053633;28;20044;-61
2021/03/21 07:58:52;;;;;;;174.25;36.50;;;;;;;25.61;51.07;100392.88;5054034;28;20025;-61
2021/03/21 08:01:20;;;;;;;147.70;30.88;;;;;;;25.64;50.17;100393.25;5053548;28;20021;-60
2021/03/21 08:03:57;;;;;;;160.07;34.30;;;;;;;25.55;50.20;100391.03;5068406;28;20055;-61
2021/03/21 08:06:32;;;;;;;180.88;35.85;;;;;;;25.46;50.88;100385.00;5073047;28;20513;-61
2021/03/21 08:09:13;;;;;;;177.00;34.80;;;;;;;25.44;49.31;100390.72;5073386;28;20024;-60
2021/03/21 08:11:42;;;;;;;164.98;36.88;;;;;;;25.43;50.60;100391.81;5073689;28;20020;-61
2021/03/21 08:14:27;;;;;;;176.35;38.33;;;;;;;25.49;51.29;100385.38;5055591;28;20071;-61
2021/03/21 08:16:57;;;;;;;179.27;36.35;;;;;;;25.45;50.17;100386.91;5073381;28;20103;-61
2021/03/21 08:19:27;;;;;;;185.77;38.92;;;;;;;25.52;50.17;100405.25;5073500;28;20071;-61
2021/03/21 08:21:55;;;;;;;180.80;36.92;;;;;;;25.52;51.82;100400.56;5073036;28;20502;-60
2021/03/21 08:24:23;;;;;;;178.80;37.17;;;;;;;25.55;49.52;100404.81;5073248;28;20464;-61
2021/03/21 08:26:49;;;;;;;164.70;34.88;;;;;;;25.58;51.31;100420.84;5073224;28;20467;-61
2021/03/21 08:29:21;;;;;;;141.73;32.13;;;;;;;25.68;51.26;100415.66;5055171;28;20056;-61
2021/03/21 08:32:01;;;;;;;155.63;33.88;;;;;;;25.61;49.71;100410.22;5073296;28;20023;-61
2021/03/21 08:34:33;;;;;;;159.82;34.58;;;;;;;25.60;51.17;100430.56;5070742;28;20028;-61
2021/03/21 08:37:01;;;;;;;154.75;34.47;;;;;;;25.62;49.48;100425.66;5072911;28;20103;-61
2021/03/21 08:39:49;;;;;;;160.25;33.83;;;;;;;25.58;49.56;100431.88;5073133;28;20024;-61
2021/03/21 08:42:26;;;;;;;180.52;38.63;;;;;;;25.62;50.34;100424.81;5072730;28;20024;-61
2021/03/21 08:44:59;;;;;;;155.55;32.58;;;;;;;25.63;50.56;100423.75;5072995;28;20039;-61
2021/03/21 08:47:28;;;;;;;169.10;37.28;;;;;;;25.66;52.75;100420.53;5072787;28;20034;-61
2021/03/21 08:49:56;;;;;;;185.10;38.58;;;;;;;25.66;51.29;100440.66;5072883;28;20036;-62
2021/03/21 08:52:29;;;;;;;178.70;38.60;;;;;;;25.67;51.33;100449.75;5072774;28;20020;-61
2021/03/21 08:54:54;;;;;;;180.57;39.10;;;;;;;25.60;51.17;100447.09;5072550;28;20117;-61
2021/03/21 08:57:36;;;;;;;179.90;39.25;;;;;;;25.60;52.19;100451.75;5072790;28;20476;-60
2021/03/21 09:00:13;;;;;;;186.27;38.90;;;;;;;25.66;52.34;100456.31;5072755;28;20494;-61
2021/03/21 09:02:39;;;;;;;203.73;43.15;;;;;;;25.68;51.58;100455.06;5071383;28;20050;-61
2021/03/21 09:05:12;;;;;;;176.70;38.38;;;;;;;25.73;51.61;100449.72;5072510;28;20107;-61
2021/03/21 09:07:40;;;;;;;163.80;33.70;;;;;;;25.78;51.37;100454.53;5072728;28;20383;-61
2021/03/21 09:10:11;;;;;;;147.63;32.33;;;;;;;25.73;51.49;100457.13;5072198;28;20066;-61
2021/03/21 09:12:55;;;;;;;172.73;37.20;;;;;;;25.65;51.25;100455.47;5072626;28;20025;-61
2021/03/21 09:15:33;;;;;;;177.60;35.42;;;;;;;25.68;51.58;100459.72;5072461;28;20052;-61
2021/03/21 09:18:15;;;;;;;188.15;40.80;;;;;;;25.70;51.57;100461.19;5072380;28;20039;-62
2021/03/21 09:20:44;;;;;;;193.27;39.42;;;;;;;25.69;52.32;100469.66;5072597;28;20024;-61
2021/03/21 09:23:31;;;;;;;158.23;36.00;;;;;;;25.70;51.73;100469.47;5072246;28;20027;-61
2021/03/21 09:25:58;;;;;;;192.73;41.08;;;;;;;25.73;52.36;100465.41;5072313;28;20024;-61
2021/03/21 09:28:26;;;;;;;189.45;39.35;;;;;;;25.72;52.38;100471.97;5072711;28;20052;-61
2021/03/21 09:30:53;;;;;;;192.77;40.78;;;;;;;25.72;52.51;100480.22;5072416;28;20068;-62
2021/03/21 09:33:32;;;;;;;183.90;39.25;;;;;;;25.70;52.97;100474.13;5071909;28;20017;-62
2021/03/21 09:36:03;;;;;;;173.70;39.88;;;;;;;25.80;51.80;100474.41;5071959;28;20111;-61
2021/03/21 09:38:33;;;;;;;184.23;40.55;;;;;;;25.71;51.23;100481.31;5072353;28;20067;-61
2021/03/21 09:41:02;;;;;;;169.18;36.65;;;;;;;25.69;51.20;100487.00;5072120;28;20509;-61
2021/03/21 09:43:36;;;;;;;169.38;36.92;;;;;;;25.62;51.20;100493.66;5072384;28;20016;-61
2021/03/21 09:46:26;;;;;;;165.18;37.90;;;;;;;25.66;50.32;100486.59;5072060;28;20043;-62
2021/03/21 09:49:16;;;;;;;166.18;35.17;;;;;;;25.71;50.64;100500.59;5054161;28;20059;-62
2021/03/21 09:52:24;;;;;;;190.13;40.67;;;;;;;25.68;52.82;100510.09;5072359;28;20352;-61
2021/03/21 09:55:17;;;;;;;206.23;43.47;;;;;;;25.74;52.51;100527.66;4990353;28;20058;-62
2021/03/21 09:58:09;;;;;;;193.95;40.97;;;;;;;25.70;52.18;100534.69;4990675;28;20034;-61
2021/03/21 10:00:38;;;;;;;183.95;39.30;;;;;;;25.74;51.68;100530.41;4990478;28;20285;-62
2021/03/21 10:03:04;;;;;;;187.23;38.60;;;;;;;25.71;51.22;100536.38;4989947;28;20049;-61
2021/03/21 10:05:49;;;;;;;189.48;41.22;;;;;;;25.69;52.76;100532.97;4990597;28;20026;-62
2021/03/21 10:08:42;;;;;;;179.13;40.00;;;;;;;25.78;51.30;100540.72;4990241;28;20397;-61
2021/03/21 10:11:11;;;;;;;179.85;40.10;;;;;;;25.67;51.50;100554.34;4990118;28;20061;-61
2021/03/21 10:13:39;;;;;;;175.02;38.83;;;;;;;25.72;51.04;100560.06;4992545;28;20515;-61
2021/03/21 10:16:26;;;;;;;180.18;38.22;;;;;;;25.73;50.03;100572.78;4993904;28;20038;-61
2021/03/21 10:19:07;;;;;;;167.18;36.88;;;;;;;25.66;51.00;100555.44;4993990;28;20389;-61
2021/03/21 10:21:39;;;;;;;183.90;39.65;;;;;;;25.60;49.78;100561.84;4994110;28;20034;-61
2021/03/21 10:24:12;;;;;;;173.50;35.17;;;;;;;25.62;49.38;100548.69;4993749;28;20030;-61
2021/03/21 10:27:21;;;;;;;195.52;41.95;;;;;;;25.61;50.62;100571.78;4994017;28;20046;-61
2021/03/21 10:30:19;;;;;;;186.23;41.22;;;;;;;25.69;50.96;100585.28;5052382;28;20230;-61
2021/03/21 10:32:49;;;;;;;203.40;44.33;;;;;;;25.67;50.68;100579.97;5053970;28;20035;-61
2021/03/21 10:35:34;;;;;;;178.63;38.35;;;;;;;25.68;51.55;100586.34;5055495;28;20063;-61
2021/03/21 10:38:08;;;;;;;189.10;40.17;;;;;;;25.68;50.74;100580.84;5055178;28;20062;-61
2021/03/21 10:40:36;;;;;;;192.63;39.90;;;;;;;25.77;51.56;100590.50;5055440;28;20033;-61
2021/03/21 10:43:11;;;;;;;207.00;44.63;;;;;;;25.83;51.28;100589.59;5055116;28;20143;-62
2021/03/21 10:45:36;;;;;;;216.75;46.60;;;;;;;25.93;51.47;100622.97;5055371;28;20086;-62
2021/03/21 10:48:25;;;;;;;235.07;48.00;;;;;;;25.97;51.32;100623.34;5055072;28;20520;-62
2021/03/21 10:50:50;;;;;;;196.45;42.05;;;;;;;25.96;51.06;100599.63;4973855;28;20517;-62
2021/03/21 10:53:23;;;;;;;184.77;41.88;;;;;;;25.87;50.62;100604.63;4973806;28;20113;-61
2021/03/21 10:56:04;;;;;;;193.82;40.90;;;;;;;25.82;52.33;100609.94;4973703;28;20042;-61
2021/03/21 10:58:53;;;;;;;190.52;40.22;;;;;;;25.83;51.60;100610.78;4973973;28;20089;-61
2021/03/21 11:01:19;;;;;;;195.43;41.83;;;;;;;25.81;51.97;100608.25;4973787;28;20167;-61
2021/03/21 11:03:49;;;;;;;178.82;37.67;;;;;;;25.80;51.60;100612.09;4973980;28;20035;-62
2021/03/21 11:06:16;;;;;;;192.25;38.30;;;;;;;25.73;52.08;100616.81;4973547;28;20027;-62
2021/03/21 11:08:41;;;;;;;180.07;40.05;;;;;;;25.72;51.10;100631.66;4973840;28;20039;-61
2021/03/21 11:11:25;;;;;;;197.50;42.67;;;;;;;25.70;50.79;100622.78;4973483;28;20066;-61
2021/03/21 11:13:53;;;;;;;179.50;38.83;;;;;;;25.71;50.74;100621.72;4973642;28;20541;-61
2021/03/21 11:16:21;;;;;;;191.40;42.25;;;;;;;25.71;50.92;100625.31;4973302;28;20045;-61
2021/03/21 11:18:52;;;;;;;206.20;43.67;;;;;;;25.67;52.22;100626.78;4973558;28;20038;-62
2021/03/21 11:21:18;;;;;;;190.30;40.08;;;;;;;25.66;50.22;100644.34;4973302;28;20741;-62
2021/03/21 11:23:53;;;;;;;191.45;44.58;;;;;;;25.68;51.89;100630.41;4973339;28;20103;-62
2021/03/21 11:26:24;;;;;;;182.60;39.38;;;;;;;25.72;51.79;100642.66;4972264;28;20030;-62
2021/03/21 11:29:10;;;;;;;181.20;38.83;;;;;;;25.74;51.85;100640.53;5045203;28;20302;-61
2021/03/21 11:32:04;;;;;;;193.63;41.35;;;;;;;25.73;52.45;100634.19;5054479;28;20025;-61
2021/03/21 11:34:35;;;;;;;187.40;40.93;;;;;;;25.67;50.43;100634.19;5054396;28;20079;-61
2021/03/21 11:37:13;;;;;;;189.95;38.50;;;;;;;25.70;51.51;100639.31;5054060;28;20269;-61
2021/03/21 11:39:48;;;;;;;200.75;42.22;;;;;;;25.68;51.48;100652.41;5054392;28;20032;-62
2021/03/21 11:42:37;;;;;;;193.38;40.42;;;;;;;25.70;50.77;100642.06;5053917;28;20128;-62